Farmington, Washington
Current Conditions -  °F | °C
As of 6:53 AM on Thursday 23 Oct 2014 (Local Time) from KPUW Reporting Station
Overcast Overcast  
Wind Chill: 10°   Ceiling: 1700
Heat Index: 10°   Visibility: 10mi
Dew Point:   Wind: 9mph
Humidity: 89%   Direction: 110°ESE
Pressure: 29.83"   Gusts: NA
Location:  47.09°N, 117.04°W
Report Text: KPUW 231353Z AUTO 11008KT 10SM OVC017 10/08 A2983 RMK AO2 RAE34 SLP100 P0002 T01000083
Loading
Personal Weather Stations






























Interactive Weather Map
Tropical Storm Tracking
New forecast layout! Learn more

10-Day Weather Forecast

Advertisements
Track Severe Weather on mobile